sensor_id;sensor_type;location;lat;lon;timestamp;temperature;humidity
17202;DHT22;8717;53.588;10.176;2023-07-31T00:00:04;13.10;99.90
17202;DHT22;8717;53.588;10.176;2023-07-31T00:02:30;13.00;99.90
17202;DHT22;8717;53.588;10.176;2023-07-31T00:04:57;13.10;99.90
17202;DHT22;8717;53.588;10.176;2023-07-31T00:07:25;13.10;99.90
17202;DHT22;8717;53.588;10.176;2023-07-31T00:09:52;13.10;99.90
17202;DHT22;8717;53.588;10.176;2023-07-31T00:12:19;13.10;99.90
17202;DHT22;8717;53.588;10.176;2023-07-31T00:14:46;13.10;99.90
17202;DHT22;8717;53.588;10.176;2023-07-31T00:17:13;13.10;99.90
17202;DHT22;8717;53.588;10.176;2023-07-31T00:19:39;13.10;99.90
17202;DHT22;8717;53.588;10.176;2023-07-31T00:22:06;13.10;99.90
17202;DHT22;8717;53.588;10.176;2023-07-31T00:24:34;13.20;99.90
17202;DHT22;8717;53.588;10.176;2023-07-31T00:27:01;13.20;99.90
17202;DHT22;8717;53.588;10.176;2023-07-31T00:29:27;13.20;99.90
17202;DHT22;8717;53.588;10.176;2023-07-31T00:31:54;13.20;99.90
17202;DHT22;8717;53.588;10.176;2023-07-31T00:34:21;13.20;99.90
17202;DHT22;8717;53.588;10.176;2023-07-31T00:36:47;13.20;99.90
17202;DHT22;8717;53.588;10.176;2023-07-31T00:39:16;13.20;99.90
17202;DHT22;8717;53.588;10.176;2023-07-31T00:41:45;13.20;99.90
17202;DHT22;8717;53.588;10.176;2023-07-31T00:44:12;13.30;99.90
17202;DHT22;8717;53.588;10.176;2023-07-31T00:46:39;13.30;99.90
17202;DHT22;8717;53.588;10.176;2023-07-31T00:49:05;13.30;99.90
17202;DHT22;8717;53.588;10.176;2023-07-31T00:51:33;13.30;99.90
17202;DHT22;8717;53.588;10.176;2023-07-31T00:54:00;13.30;99.90
17202;DHT22;8717;53.588;10.176;2023-07-31T00:56:27;13.30;99.90
17202;DHT22;8717;53.588;10.176;2023-07-31T00:58:56;13.30;99.90
17202;DHT22;8717;53.588;10.176;2023-07-31T01:01:23;13.30;99.90
17202;DHT22;8717;53.588;10.176;2023-07-31T01:03:50;13.30;99.90
17202;DHT22;8717;53.588;10.176;2023-07-31T01:06:25;13.30;99.90
17202;DHT22;8717;53.588;10.176;2023-07-31T01:09:00;13.30;99.90
17202;DHT22;8717;53.588;10.176;2023-07-31T01:11:29;13.30;99.90
17202;DHT22;8717;53.588;10.176;2023-07-31T01:13:58;13.20;99.90
17202;DHT22;8717;53.588;10.176;2023-07-31T01:16:26;13.20;99.90
17202;DHT22;8717;53.588;10.176;2023-07-31T01:18:53;13.20;99.90
17202;DHT22;8717;53.588;10.176;2023-07-31T01:21:41;13.20;99.90
17202;DHT22;8717;53.588;10.176;2023-07-31T01:24:22;13.20;99.90
17202;DHT22;8717;53.588;10.176;2023-07-31T01:26:55;13.10;99.90
17202;DHT22;8717;53.588;10.176;2023-07-31T01:29:29;13.10;99.90
17202;DHT22;8717;53.588;10.176;2023-07-31T01:32:02;13.10;99.90
17202;DHT22;8717;53.588;10.176;2023-07-31T01:34:29;13.10;99.90
17202;DHT22;8717;53.588;10.176;2023-07-31T01:36:57;13.00;99.90
17202;DHT22;8717;53.588;10.176;2023-07-31T01:39:25;13.00;99.90
17202;DHT22;8717;53.588;10.176;2023-07-31T01:41:53;13.00;99.90
17202;DHT22;8717;53.588;10.176;2023-07-31T01:44:20;12.90;99.90
17202;DHT22;8717;53.588;10.176;2023-07-31T01:46:47;13.00;99.90
17202;DHT22;8717;53.588;10.176;2023-07-31T01:49:14;13.00;99.90
17202;DHT22;8717;53.588;10.176;2023-07-31T01:51:41;12.90;99.90
17202;DHT22;8717;53.588;10.176;2023-07-31T01:54:08;12.90;99.90
17202;DHT22;8717;53.588;10.176;2023-07-31T01:56:35;12.90;99.90
17202;DHT22;8717;53.588;10.176;2023-07-31T01:59:03;12.90;99.90
17202;DHT22;8717;53.588;10.176;2023-07-31T02:01:30;13.00;99.90
17202;DHT22;8717;53.588;10.176;2023-07-31T02:03:58;13.00;99.90
17202;DHT22;8717;53.588;10.176;2023-07-31T02:06:24;13.00;99.90
17202;DHT22;8717;53.588;10.176;2023-07-31T02:08:51;13.00;99.90
17202;DHT22;8717;53.588;10.176;2023-07-31T02:11:18;13.00;99.90
17202;DHT22;8717;53.588;10.176;2023-07-31T02:13:45;13.10;99.90
17202;DHT22;8717;53.588;10.176;2023-07-31T02:16:13;13.10;99.90
17202;DHT22;8717;53.588;10.176;2023-07-31T02:18:40;13.10;99.90
17202;DHT22;8717;53.588;10.176;2023-07-31T02:21:07;13.10;99.90
17202;DHT22;8717;53.588;10.176;2023-07-31T02:23:34;13.10;99.90
17202;DHT22;8717;53.588;10.176;2023-07-31T02:26:00;13.20;99.90
17202;DHT22;8717;53.588;10.176;2023-07-31T02:28:27;13.20;99.90
17202;DHT22;8717;53.588;10.176;2023-07-31T02:30:54;13.20;99.90
17202;DHT22;8717;53.588;10.176;2023-07-31T02:33:22;13.20;99.90
17202;DHT22;8717;53.588;10.176;2023-07-31T02:35:48;13.20;99.90
17202;DHT22;8717;53.588;10.176;2023-07-31T02:38:15;13.30;99.90
17202;DHT22;8717;53.588;10.176;2023-07-31T02:40:42;13.30;99.90
17202;DHT22;8717;53.588;10.176;2023-07-31T02:43:09;13.30;99.90
17202;DHT22;8717;53.588;10.176;2023-07-31T02:45:36;13.30;99.90
17202;DHT22;8717;53.588;10.176;2023-07-31T02:48:03;13.30;99.90
17202;DHT22;8717;53.588;10.176;2023-07-31T02:50:32;13.30;99.90
17202;DHT22;8717;53.588;10.176;2023-07-31T02:52:59;13.40;99.90
17202;DHT22;8717;53.588;10.176;2023-07-31T02:55:26;13.40;99.90
17202;DHT22;8717;53.588;10.176;2023-07-31T02:57:53;13.40;99.90
17202;DHT22;8717;53.588;10.176;2023-07-31T03:00:21;13.40;99.90
17202;DHT22;8717;53.588;10.176;2023-07-31T03:02:48;13.40;99.90
17202;DHT22;8717;53.588;10.176;2023-07-31T03:05:15;13.50;99.90
17202;DHT22;8717;53.588;10.176;2023-07-31T03:07:43;13.50;99.90
17202;DHT22;8717;53.588;10.176;2023-07-31T03:10:10;13.50;99.90
17202;DHT22;8717;53.588;10.176;2023-07-31T03:12:37;13.50;99.90
17202;DHT22;8717;53.588;10.176;2023-07-31T03:15:04;13.50;99.90
17202;DHT22;8717;53.588;10.176;2023-07-31T03:17:31;13.50;99.90
17202;DHT22;8717;53.588;10.176;2023-07-31T03:19:58;13.50;99.90
17202;DHT22;8717;53.588;10.176;2023-07-31T03:22:25;13.50;99.90
17202;DHT22;8717;53.588;10.176;2023-07-31T03:24:53;13.50;99.90
17202;DHT22;8717;53.588;10.176;2023-07-31T03:27:20;13.50;99.90
17202;DHT22;8717;53.588;10.176;2023-07-31T03:29:47;13.50;99.90
17202;DHT22;8717;53.588;10.176;2023-07-31T03:32:15;13.50;99.90
17202;DHT22;8717;53.588;10.176;2023-07-31T03:34:42;13.50;99.90
17202;DHT22;8717;53.588;10.176;2023-07-31T03:37:09;13.50;99.90
17202;DHT22;8717;53.588;10.176;2023-07-31T03:39:36;13.50;99.90
17202;DHT22;8717;53.588;10.176;2023-07-31T03:42:04;13.50;99.90
17202;DHT22;8717;53.588;10.176;2023-07-31T03:44:31;13.60;99.90
17202;DHT22;8717;53.588;10.176;2023-07-31T03:46:58;13.60;99.90
17202;DHT22;8717;53.588;10.176;2023-07-31T03:49:25;13.60;99.90
17202;DHT22;8717;53.588;10.176;2023-07-31T03:51:51;13.60;99.90
17202;DHT22;8717;53.588;10.176;2023-07-31T03:54:18;13.70;99.90
17202;DHT22;8717;53.588;10.176;2023-07-31T03:56:45;13.70;99.90
17202;DHT22;8717;53.588;10.176;2023-07-31T03:59:13;13.70;99.90
17202;DHT22;8717;53.588;10.176;2023-07-31T04:01:40;13.70;99.90
17202;DHT22;8717;53.588;10.176;2023-07-31T04:04:07;13.70;99.90
17202;DHT22;8717;53.588;10.176;2023-07-31T04:06:33;13.80;99.90
17202;DHT22;8717;53.588;10.176;2023-07-31T04:09:01;13.80;99.90
17202;DHT22;8717;53.588;10.176;2023-07-31T04:11:28;13.90;99.90
17202;DHT22;8717;53.588;10.176;2023-07-31T04:13:54;13.90;99.90
17202;DHT22;8717;53.588;10.176;2023-07-31T04:16:22;13.90;99.90
17202;DHT22;8717;53.588;10.176;2023-07-31T04:18:49;13.90;99.90
17202;DHT22;8717;53.588;10.176;2023-07-31T04:21:16;13.90;99.90
17202;DHT22;8717;53.588;10.176;2023-07-31T04:23:43;14.00;99.90
17202;DHT22;8717;53.588;10.176;2023-07-31T04:26:09;14.00;99.90
17202;DHT22;8717;53.588;10.176;2023-07-31T04:28:36;14.00;99.90
17202;DHT22;8717;53.588;10.176;2023-07-31T04:31:03;14.10;99.90
17202;DHT22;8717;53.588;10.176;2023-07-31T04:33:31;14.00;99.90
17202;DHT22;8717;53.588;10.176;2023-07-31T04:35:59;14.10;99.90
17202;DHT22;8717;53.588;10.176;2023-07-31T04:38:26;14.20;99.90
17202;DHT22;8717;53.588;10.176;2023-07-31T04:40:52;14.10;99.90
17202;DHT22;8717;53.588;10.176;2023-07-31T04:43:19;14.10;99.90
17202;DHT22;8717;53.588;10.176;2023-07-31T04:45:46;14.20;99.90
17202;DHT22;8717;53.588;10.176;2023-07-31T04:48:13;14.20;99.90
17202;DHT22;8717;53.588;10.176;2023-07-31T04:50:42;14.20;99.90
17202;DHT22;8717;53.588;10.176;2023-07-31T04:53:08;14.20;99.90
17202;DHT22;8717;53.588;10.176;2023-07-31T04:55:35;14.20;99.90
17202;DHT22;8717;53.588;10.176;2023-07-31T04:58:02;14.20;99.90
17202;DHT22;8717;53.588;10.176;2023-07-31T05:00:29;14.20;99.90
17202;DHT22;8717;53.588;10.176;2023-07-31T05:02:56;14.20;99.90
17202;DHT22;8717;53.588;10.176;2023-07-31T05:05:23;14.20;99.90
17202;DHT22;8717;53.588;10.176;2023-07-31T05:07:51;14.20;99.90
17202;DHT22;8717;53.588;10.176;2023-07-31T05:10:18;14.30;99.90
17202;DHT22;8717;53.588;10.176;2023-07-31T05:12:45;14.30;99.90
17202;DHT22;8717;53.588;10.176;2023-07-31T05:15:13;14.30;99.90
17202;DHT22;8717;53.588;10.176;2023-07-31T05:17:40;14.30;99.90
17202;DHT22;8717;53.588;10.176;2023-07-31T05:20:08;14.30;99.90
17202;DHT22;8717;53.588;10.176;2023-07-31T05:22:35;14.30;99.90
17202;DHT22;8717;53.588;10.176;2023-07-31T05:25:04;14.30;99.90
17202;DHT22;8717;53.588;10.176;2023-07-31T05:27:32;14.30;99.90
17202;DHT22;8717;53.588;10.176;2023-07-31T05:29:59;14.30;99.90
17202;DHT22;8717;53.588;10.176;2023-07-31T05:32:26;14.30;99.90
17202;DHT22;8717;53.588;10.176;2023-07-31T05:34:53;14.40;99.90
17202;DHT22;8717;53.588;10.176;2023-07-31T05:37:22;14.30;99.90
17202;DHT22;8717;53.588;10.176;2023-07-31T05:39:49;14.30;99.90
17202;DHT22;8717;53.588;10.176;2023-07-31T05:42:17;14.30;99.90
17202;DHT22;8717;53.588;10.176;2023-07-31T05:44:47;14.30;99.90
17202;DHT22;8717;53.588;10.176;2023-07-31T05:47:14;14.40;99.90
17202;DHT22;8717;53.588;10.176;2023-07-31T05:49:41;14.40;99.90
17202;DHT22;8717;53.588;10.176;2023-07-31T05:52:08;14.40;99.90
17202;DHT22;8717;53.588;10.176;2023-07-31T05:54:34;14.50;99.90
17202;DHT22;8717;53.588;10.176;2023-07-31T05:57:01;14.50;99.90
17202;DHT22;8717;53.588;10.176;2023-07-31T05:59:29;14.50;99.90
17202;DHT22;8717;53.588;10.176;2023-07-31T06:01:58;14.50;99.90
17202;DHT22;8717;53.588;10.176;2023-07-31T06:04:25;14.50;99.90
17202;DHT22;8717;53.588;10.176;2023-07-31T06:06:52;14.60;99.90
17202;DHT22;8717;53.588;10.176;2023-07-31T06:09:18;14.60;99.90
17202;DHT22;8717;53.588;10.176;2023-07-31T06:11:46;14.60;99.90
17202;DHT22;8717;53.588;10.176;2023-07-31T06:14:12;14.70;99.90
17202;DHT22;8717;53.588;10.176;2023-07-31T06:16:40;14.70;99.90
17202;DHT22;8717;53.588;10.176;2023-07-31T06:19:07;14.70;99.90
17202;DHT22;8717;53.588;10.176;2023-07-31T06:21:34;14.80;99.90
17202;DHT22;8717;53.588;10.176;2023-07-31T06:24:02;14.80;99.90
17202;DHT22;8717;53.588;10.176;2023-07-31T06:26:29;14.90;99.90
17202;DHT22;8717;53.588;10.176;2023-07-31T06:28:56;14.90;99.90
17202;DHT22;8717;53.588;10.176;2023-07-31T06:31:23;15.00;99.90
17202;DHT22;8717;53.588;10.176;2023-07-31T06:33:51;14.90;99.90
17202;DHT22;8717;53.588;10.176;2023-07-31T06:36:19;15.00;99.90
17202;DHT22;8717;53.588;10.176;2023-07-31T06:38:45;15.00;99.90
17202;DHT22;8717;53.588;10.176;2023-07-31T06:41:12;15.00;99.90
17202;DHT22;8717;53.588;10.176;2023-07-31T06:43:39;15.00;99.90
17202;DHT22;8717;53.588;10.176;2023-07-31T06:46:06;15.00;99.90
17202;DHT22;8717;53.588;10.176;2023-07-31T06:48:34;15.00;99.90
17202;DHT22;8717;53.588;10.176;2023-07-31T06:51:03;15.00;99.90
17202;DHT22;8717;53.588;10.176;2023-07-31T06:53:30;15.00;99.90
17202;DHT22;8717;53.588;10.176;2023-07-31T06:55:57;15.00;99.90
17202;DHT22;8717;53.588;10.176;2023-07-31T06:58:23;15.10;99.90
17202;DHT22;8717;53.588;10.176;2023-07-31T07:00:50;15.10;99.90
17202;DHT22;8717;53.588;10.176;2023-07-31T07:07:05;15.10;99.90
17202;DHT22;8717;53.588;10.176;2023-07-31T07:09:32;15.20;99.90
17202;DHT22;8717;53.588;10.176;2023-07-31T07:11:58;15.20;99.90
17202;DHT22;8717;53.588;10.176;2023-07-31T07:14:25;15.20;99.90
17202;DHT22;8717;53.588;10.176;2023-07-31T07:16:52;15.20;99.90
17202;DHT22;8717;53.588;10.176;2023-07-31T07:19:18;15.30;99.90
17202;DHT22;8717;53.588;10.176;2023-07-31T07:21:45;15.20;99.90
17202;DHT22;8717;53.588;10.176;2023-07-31T07:24:13;15.20;99.90
17202;DHT22;8717;53.588;10.176;2023-07-31T07:26:42;15.30;99.90
17202;DHT22;8717;53.588;10.176;2023-07-31T07:29:08;15.30;99.90
17202;DHT22;8717;53.588;10.176;2023-07-31T07:31:36;15.30;99.90
17202;DHT22;8717;53.588;10.176;2023-07-31T07:34:03;15.30;99.90
17202;DHT22;8717;53.588;10.176;2023-07-31T07:36:29;15.30;99.90
17202;DHT22;8717;53.588;10.176;2023-07-31T07:38:58;15.30;99.90
17202;DHT22;8717;53.588;10.176;2023-07-31T07:41:26;15.30;99.90
17202;DHT22;8717;53.588;10.176;2023-07-31T07:43:52;15.40;99.90
17202;DHT22;8717;53.588;10.176;2023-07-31T07:46:19;15.30;99.90
17202;DHT22;8717;53.588;10.176;2023-07-31T07:48:46;15.40;99.90
17202;DHT22;8717;53.588;10.176;2023-07-31T07:51:12;15.40;99.90
17202;DHT22;8717;53.588;10.176;2023-07-31T07:53:39;15.40;99.90
17202;DHT22;8717;53.588;10.176;2023-07-31T07:56:06;15.30;99.90
17202;DHT22;8717;53.588;10.176;2023-07-31T07:58:34;15.30;99.90
17202;DHT22;8717;53.588;10.176;2023-07-31T08:01:03;15.20;99.90
17202;DHT22;8717;53.588;10.176;2023-07-31T08:03:29;15.20;99.90
17202;DHT22;8717;53.588;10.176;2023-07-31T08:05:58;15.20;99.90
17202;DHT22;8717;53.588;10.176;2023-07-31T08:08:25;15.20;99.90
17202;DHT22;8717;53.588;10.176;2023-07-31T08:10:51;15.20;99.90
17202;DHT22;8717;53.588;10.176;2023-07-31T08:13:18;15.20;99.90
17202;DHT22;8717;53.588;10.176;2023-07-31T08:15:46;15.20;99.90
17202;DHT22;8717;53.588;10.176;2023-07-31T08:18:13;15.20;99.90
17202;DHT22;8717;53.588;10.176;2023-07-31T08:20:42;15.30;99.90
17202;DHT22;8717;53.588;10.176;2023-07-31T08:23:09;15.30;99.90
17202;DHT22;8717;53.588;10.176;2023-07-31T08:25:36;15.30;99.90
17202;DHT22;8717;53.588;10.176;2023-07-31T08:28:03;15.40;99.90
17202;DHT22;8717;53.588;10.176;2023-07-31T08:30:29;15.50;99.90
17202;DHT22;8717;53.588;10.176;2023-07-31T08:32:57;15.50;99.90
17202;DHT22;8717;53.588;10.176;2023-07-31T08:35:25;15.60;99.90
17202;DHT22;8717;53.588;10.176;2023-07-31T08:37:53;15.60;99.90
17202;DHT22;8717;53.588;10.176;2023-07-31T08:40:20;15.70;99.90
17202;DHT22;8717;53.588;10.176;2023-07-31T08:42:49;15.70;99.90
17202;DHT22;8717;53.588;10.176;2023-07-31T08:45:17;15.70;99.90
17202;DHT22;8717;53.588;10.176;2023-07-31T08:47:45;15.80;99.90
17202;DHT22;8717;53.588;10.176;2023-07-31T08:50:14;15.80;99.90
17202;DHT22;8717;53.588;10.176;2023-07-31T08:52:41;15.80;99.90
17202;DHT22;8717;53.588;10.176;2023-07-31T08:55:09;15.90;99.90
17202;DHT22;8717;53.588;10.176;2023-07-31T08:57:37;15.90;99.90
17202;DHT22;8717;53.588;10.176;2023-07-31T09:00:08;15.90;99.90
17202;DHT22;8717;53.588;10.176;2023-07-31T09:02:41;15.90;99.90
17202;DHT22;8717;53.588;10.176;2023-07-31T09:05:09;15.90;99.90
17202;DHT22;8717;53.588;10.176;2023-07-31T09:07:39;15.90;99.90
17202;DHT22;8717;53.588;10.176;2023-07-31T09:10:07;16.00;99.90
17202;DHT22;8717;53.588;10.176;2023-07-31T09:12:34;15.90;99.90
17202;DHT22;8717;53.588;10.176;2023-07-31T09:15:01;16.00;99.90
17202;DHT22;8717;53.588;10.176;2023-07-31T09:17:29;16.00;99.90
17202;DHT22;8717;53.588;10.176;2023-07-31T09:19:56;16.00;99.90
17202;DHT22;8717;53.588;10.176;2023-07-31T09:22:32;16.00;99.90
17202;DHT22;8717;53.588;10.176;2023-07-31T09:25:14;16.10;99.90
17202;DHT22;8717;53.588;10.176;2023-07-31T09:27:46;16.10;99.90
17202;DHT22;8717;53.588;10.176;2023-07-31T09:30:17;16.10;99.90
17202;DHT22;8717;53.588;10.176;2023-07-31T09:32:44;16.20;99.90
17202;DHT22;8717;53.588;10.176;2023-07-31T09:35:19;16.20;99.90
17202;DHT22;8717;53.588;10.176;2023-07-31T09:37:49;16.20;99.90
17202;DHT22;8717;53.588;10.176;2023-07-31T09:40:27;16.20;99.90
17202;DHT22;8717;53.588;10.176;2023-07-31T09:42:55;16.20;99.90
17202;DHT22;8717;53.588;10.176;2023-07-31T09:45:23;16.20;99.90
17202;DHT22;8717;53.588;10.176;2023-07-31T09:47:50;16.20;99.90
17202;DHT22;8717;53.588;10.176;2023-07-31T09:50:16;16.30;99.90
17202;DHT22;8717;53.588;10.176;2023-07-31T09:52:43;16.30;99.90
17202;DHT22;8717;53.588;10.176;2023-07-31T09:55:10;16.40;99.90
17202;DHT22;8717;53.588;10.176;2023-07-31T09:57:40;16.40;99.90
17202;DHT22;8717;53.588;10.176;2023-07-31T10:00:09;16.50;99.90
17202;DHT22;8717;53.588;10.176;2023-07-31T10:02:40;16.60;99.90
17202;DHT22;8717;53.588;10.176;2023-07-31T10:05:08;16.80;99.90
17202;DHT22;8717;53.588;10.176;2023-07-31T10:07:37;16.90;99.90
17202;DHT22;8717;53.588;10.176;2023-07-31T10:10:07;17.00;99.90
17202;DHT22;8717;53.588;10.176;2023-07-31T10:12:35;17.10;99.90
17202;DHT22;8717;53.588;10.176;2023-07-31T10:15:04;17.10;99.90
17202;DHT22;8717;53.588;10.176;2023-07-31T10:17:33;17.20;99.90
17202;DHT22;8717;53.588;10.176;2023-07-31T10:20:02;17.30;99.90
17202;DHT22;8717;53.588;10.176;2023-07-31T10:22:30;17.30;99.90
17202;DHT22;8717;53.588;10.176;2023-07-31T10:24:58;17.30;99.90
17202;DHT22;8717;53.588;10.176;2023-07-31T10:27:28;17.30;99.90
17202;DHT22;8717;53.588;10.176;2023-07-31T10:29:56;17.40;99.90
17202;DHT22;8717;53.588;10.176;2023-07-31T10:32:26;17.40;99.90
17202;DHT22;8717;53.588;10.176;2023-07-31T10:34:53;17.40;99.90
17202;DHT22;8717;53.588;10.176;2023-07-31T10:37:22;17.40;99.90
17202;DHT22;8717;53.588;10.176;2023-07-31T10:39:57;17.40;99.90
17202;DHT22;8717;53.588;10.176;2023-07-31T10:42:28;17.40;99.90
17202;DHT22;8717;53.588;10.176;2023-07-31T10:44:57;17.50;99.90
17202;DHT22;8717;53.588;10.176;2023-07-31T10:47:26;17.50;99.90
17202;DHT22;8717;53.588;10.176;2023-07-31T10:49:53;17.40;99.90
17202;DHT22;8717;53.588;10.176;2023-07-31T10:52:37;17.50;99.90
17202;DHT22;8717;53.588;10.176;2023-07-31T10:55:30;17.40;99.90
17202;DHT22;8717;53.588;10.176;2023-07-31T10:57:58;17.40;99.90
17202;DHT22;8717;53.588;10.176;2023-07-31T11:00:26;17.40;99.90
17202;DHT22;8717;53.588;10.176;2023-07-31T11:02:59;17.30;99.90
17202;DHT22;8717;53.588;10.176;2023-07-31T11:05:46;17.30;99.90
17202;DHT22;8717;53.588;10.176;2023-07-31T11:08:14;17.30;99.90
17202;DHT22;8717;53.588;10.176;2023-07-31T11:10:42;17.30;99.90
17202;DHT22;8717;53.588;10.176;2023-07-31T11:13:09;17.30;99.90
17202;DHT22;8717;53.588;10.176;2023-07-31T11:15:36;17.20;99.90
17202;DHT22;8717;53.588;10.176;2023-07-31T11:18:04;17.20;99.90
17202;DHT22;8717;53.588;10.176;2023-07-31T11:20:34;17.10;99.90
17202;DHT22;8717;53.588;10.176;2023-07-31T11:23:01;17.10;99.90
17202;DHT22;8717;53.588;10.176;2023-07-31T11:25:29;17.00;99.90
17202;DHT22;8717;53.588;10.176;2023-07-31T11:27:57;17.00;99.90
17202;DHT22;8717;53.588;10.176;2023-07-31T11:30:23;17.00;99.90
17202;DHT22;8717;53.588;10.176;2023-07-31T11:32:50;17.00;99.90
17202;DHT22;8717;53.588;10.176;2023-07-31T11:35:19;17.00;99.90
17202;DHT22;8717;53.588;10.176;2023-07-31T11:37:45;17.10;99.90
17202;DHT22;8717;53.588;10.176;2023-07-31T11:40:12;17.10;99.90
17202;DHT22;8717;53.588;10.176;2023-07-31T11:42:39;17.20;99.90
17202;DHT22;8717;53.588;10.176;2023-07-31T11:45:07;17.30;99.90
17202;DHT22;8717;53.588;10.176;2023-07-31T11:47:34;17.30;99.90
17202;DHT22;8717;53.588;10.176;2023-07-31T11:50:03;17.30;99.90
17202;DHT22;8717;53.588;10.176;2023-07-31T11:52:33;17.30;99.90
17202;DHT22;8717;53.588;10.176;2023-07-31T11:55:01;17.30;99.90
17202;DHT22;8717;53.588;10.176;2023-07-31T11:57:28;17.20;99.90
17202;DHT22;8717;53.588;10.176;2023-07-31T11:59:56;17.20;99.90
17202;DHT22;8717;53.588;10.176;2023-07-31T12:02:23;17.20;99.90
17202;DHT22;8717;53.588;10.176;2023-07-31T12:04:50;17.10;99.90
17202;DHT22;8717;53.588;10.176;2023-07-31T12:07:17;17.10;99.90
17202;DHT22;8717;53.588;10.176;2023-07-31T12:09:54;17.10;99.90
17202;DHT22;8717;53.588;10.176;2023-07-31T12:12:22;17.10;99.90
17202;DHT22;8717;53.588;10.176;2023-07-31T12:14:50;17.10;99.90
17202;DHT22;8717;53.588;10.176;2023-07-31T12:17:19;17.00;99.90
17202;DHT22;8717;53.588;10.176;2023-07-31T12:19:45;17.00;99.90
17202;DHT22;8717;53.588;10.176;2023-07-31T12:22:15;16.90;99.90
17202;DHT22;8717;53.588;10.176;2023-07-31T12:24:43;16.80;99.90
17202;DHT22;8717;53.588;10.176;2023-07-31T12:27:13;16.70;99.90
17202;DHT22;8717;53.588;10.176;2023-07-31T12:29:41;16.60;99.90
17202;DHT22;8717;53.588;10.176;2023-07-31T12:32:23;16.60;99.90
17202;DHT22;8717;53.588;10.176;2023-07-31T12:34:50;16.50;99.90
17202;DHT22;8717;53.588;10.176;2023-07-31T12:37:17;16.50;99.90
17202;DHT22;8717;53.588;10.176;2023-07-31T12:39:44;16.50;99.90
17202;DHT22;8717;53.588;10.176;2023-07-31T12:42:12;16.40;99.90
17202;DHT22;8717;53.588;10.176;2023-07-31T12:44:37;16.40;99.90
17202;DHT22;8717;53.588;10.176;2023-07-31T12:47:05;16.30;99.90
17202;DHT22;8717;53.588;10.176;2023-07-31T12:49:32;16.30;99.90
17202;DHT22;8717;53.588;10.176;2023-07-31T12:51:58;16.30;99.90
17202;DHT22;8717;53.588;10.176;2023-07-31T12:54:25;16.20;99.90
17202;DHT22;8717;53.588;10.176;2023-07-31T12:56:52;16.20;99.90
17202;DHT22;8717;53.588;10.176;2023-07-31T12:59:19;16.20;99.90
17202;DHT22;8717;53.588;10.176;2023-07-31T13:01:47;16.10;99.90
17202;DHT22;8717;53.588;10.176;2023-07-31T13:04:14;16.20;99.90
17202;DHT22;8717;53.588;10.176;2023-07-31T13:06:40;16.10;99.90
17202;DHT22;8717;53.588;10.176;2023-07-31T13:09:07;16.10;99.90
17202;DHT22;8717;53.588;10.176;2023-07-31T13:11:34;16.10;99.90
17202;DHT22;8717;53.588;10.176;2023-07-31T13:14:01;16.20;99.90
17202;DHT22;8717;53.588;10.176;2023-07-31T13:16:29;16.20;99.90
17202;DHT22;8717;53.588;10.176;2023-07-31T13:18:56;16.20;99.90
17202;DHT22;8717;53.588;10.176;2023-07-31T13:21:22;16.30;99.90
17202;DHT22;8717;53.588;10.176;2023-07-31T13:23:49;16.30;99.90
17202;DHT22;8717;53.588;10.176;2023-07-31T13:26:16;16.20;99.90
17202;DHT22;8717;53.588;10.176;2023-07-31T13:28:42;16.20;99.90
17202;DHT22;8717;53.588;10.176;2023-07-31T13:31:09;16.20;99.90
17202;DHT22;8717;53.588;10.176;2023-07-31T13:33:38;16.20;99.90
17202;DHT22;8717;53.588;10.176;2023-07-31T13:36:04;16.10;99.90
17202;DHT22;8717;53.588;10.176;2023-07-31T13:38:31;16.10;99.90
17202;DHT22;8717;53.588;10.176;2023-07-31T13:40:58;16.10;99.90
17202;DHT22;8717;53.588;10.176;2023-07-31T13:43:24;16.10;99.90
17202;DHT22;8717;53.588;10.176;2023-07-31T13:45:51;16.10;99.90
17202;DHT22;8717;53.588;10.176;2023-07-31T13:48:18;16.10;99.90
17202;DHT22;8717;53.588;10.176;2023-07-31T13:50:46;16.10;99.90
17202;DHT22;8717;53.588;10.176;2023-07-31T13:53:12;16.10;99.90
17202;DHT22;8717;53.588;10.176;2023-07-31T13:55:39;16.10;99.90
17202;DHT22;8717;53.588;10.176;2023-07-31T13:58:06;16.10;99.90
17202;DHT22;8717;53.588;10.176;2023-07-31T14:00:32;16.10;99.90
17202;DHT22;8717;53.588;10.176;2023-07-31T14:03:00;16.10;99.90
17202;DHT22;8717;53.588;10.176;2023-07-31T14:05:27;16.10;99.90
17202;DHT22;8717;53.588;10.176;2023-07-31T14:07:55;16.10;99.90
17202;DHT22;8717;53.588;10.176;2023-07-31T14:10:22;16.10;99.90
17202;DHT22;8717;53.588;10.176;2023-07-31T14:12:48;16.00;99.90
17202;DHT22;8717;53.588;10.176;2023-07-31T14:15:15;16.00;99.90
17202;DHT22;8717;53.588;10.176;2023-07-31T14:17:42;16.00;99.90
17202;DHT22;8717;53.588;10.176;2023-07-31T14:20:10;16.00;99.90
17202;DHT22;8717;53.588;10.176;2023-07-31T14:22:37;16.10;99.90
17202;DHT22;8717;53.588;10.176;2023-07-31T14:25:06;16.10;99.90
17202;DHT22;8717;53.588;10.176;2023-07-31T14:27:35;16.10;99.90
17202;DHT22;8717;53.588;10.176;2023-07-31T14:30:02;16.20;99.90
17202;DHT22;8717;53.588;10.176;2023-07-31T14:32:29;16.20;99.90
17202;DHT22;8717;53.588;10.176;2023-07-31T14:34:56;16.20;99.90
17202;DHT22;8717;53.588;10.176;2023-07-31T14:37:25;16.20;99.90
17202;DHT22;8717;53.588;10.176;2023-07-31T14:39:52;16.20;99.90
17202;DHT22;8717;53.588;10.176;2023-07-31T14:42:20;16.20;99.90
17202;DHT22;8717;53.588;10.176;2023-07-31T14:44:47;16.10;99.90
17202;DHT22;8717;53.588;10.176;2023-07-31T14:47:14;16.10;99.90
17202;DHT22;8717;53.588;10.176;2023-07-31T14:49:40;16.00;99.90
17202;DHT22;8717;53.588;10.176;2023-07-31T14:52:07;16.00;99.90
17202;DHT22;8717;53.588;10.176;2023-07-31T14:54:34;15.90;99.90
17202;DHT22;8717;53.588;10.176;2023-07-31T14:57:01;15.90;99.90
17202;DHT22;8717;53.588;10.176;2023-07-31T14:59:29;15.80;99.90
17202;DHT22;8717;53.588;10.176;2023-07-31T15:01:56;15.80;99.90
17202;DHT22;8717;53.588;10.176;2023-07-31T15:04:23;15.80;99.90
17202;DHT22;8717;53.588;10.176;2023-07-31T15:06:50;15.80;99.90
17202;DHT22;8717;53.588;10.176;2023-07-31T15:09:16;15.70;99.90
17202;DHT22;8717;53.588;10.176;2023-07-31T15:11:43;15.80;99.90
17202;DHT22;8717;53.588;10.176;2023-07-31T15:14:10;15.80;99.90
17202;DHT22;8717;53.588;10.176;2023-07-31T15:16:38;15.80;99.90
17202;DHT22;8717;53.588;10.176;2023-07-31T15:19:05;15.80;99.90
17202;DHT22;8717;53.588;10.176;2023-07-31T15:21:31;15.90;99.90
17202;DHT22;8717;53.588;10.176;2023-07-31T15:23:58;15.90;99.90
17202;DHT22;8717;53.588;10.176;2023-07-31T15:26:25;15.90;99.90
17202;DHT22;8717;53.588;10.176;2023-07-31T15:29:00;16.00;99.90
17202;DHT22;8717;53.588;10.176;2023-07-31T15:31:27;15.90;99.90
17202;DHT22;8717;53.588;10.176;2023-07-31T15:33:55;15.90;99.90
17202;DHT22;8717;53.588;10.176;2023-07-31T15:36:22;15.90;99.90